Flight Track Log - Related Links

Times and Time Zones

All times are in EDT time to prevent confusion due to time zone crossing. See the UAL1647 flight status page for this flight to view local times or setup timezone preferences in your user account.

Time Position Orientation Groundspeed Altitude Reporting Facility
EDT Latitude Longitude Course Direction KTS MPH feet Rate Location/Type
Mon 08:22:48 PM 41.9000 -87.9167 194° South 201 231 4,200  Level Chicago TRACON
Mon 08:23:10 PM 41.8747 -87.9211 187° South 205 236 5,200 3,357 Climbing Chicago Center
Mon 08:24:12 PM 41.8053 -87.9139 176° South 244 281 8,900 3,484 Climbing Chicago Center
Mon 08:25:14 PM 41.7317 -87.9325 191° South 269 310 12,400 2,634 Climbing Chicago Center
Mon 08:26:00 PM 41.5111 -88.2532 189° South  Level Estimated
Mon 08:26:15 PM 41.6472 -87.9583 193° South 316 364 14,300  Level Chicago Center
Mon 08:27:00 PM 41.4169 -88.3220 201° Southwest  Level Estimated
Mon 08:27:17 PM 41.5464 -87.9881 192° South 369 425 16,700  Level Chicago Center
Mon 08:28:00 PM 41.3240 -88.3894 194° South  Level Estimated
Mon 08:28:19 PM 41.4344 -88.0225 193° South 392 451 19,400  Level Chicago Center
Mon 08:29:21 PM 41.3200 -88.0589 193° South 403 464 22,000 2,129 Climbing Chicago Center
Mon 08:30:23 PM 41.2072 -88.0969 194° South 414 476 23,800 1,707 Climbing Chicago Center
Mon 08:31:24 PM 41.0858 -88.1308 192° South 438 504 25,500 1,854 Climbing Chicago Center
Mon 08:32:26 PM 40.9381 -88.1722 192° South 450 518 27,600 1,887 Climbing Chicago Center
Mon 08:33:28 PM 40.8128 -88.2075 192° South 457 526 29,400 1,742 Climbing Chicago Center
Mon 08:34:30 PM 40.6881 -88.2428 192° South 459 528 31,200 1,258 Climbing Chicago Center
Mon 08:35:32 PM 40.5639 -88.2783 192° South 459 528 32,000 390 Climbing Chicago Center
Mon 08:36:33 PM 40.4369 -88.3136 192° South 465 535 32,000  Level Chicago Center
Mon 08:37:35 PM 40.3117 -88.3503 193° South 464 534 32,000 532 Level Chicago Center
Mon 08:38:37 PM 40.1975 -88.4367 210° Southwest 456 525 33,100 1,234 Climbing Chicago Center
Mon 08:39:22 PM 40.1083 -88.5028 210° Southwest 457 526 34,200 1,486 Climbing Kansas City Center
Mon 08:40:26 PM 39.9994 -88.5825 209° Southwest 452 520 35,800 871 Climbing Kansas City Center
Mon 08:41:26 PM 39.8928 -88.6606 209° Southwest 442 509 36,000 99 Climbing Kansas City Center
Mon 08:42:27 PM 39.7853 -88.7394 209° Southwest 442 509 36,000 98 Level Kansas City Center
Mon 08:43:28 PM 39.6772 -88.8175 209° Southwest 442 509 36,200 885 Climbing Kansas City Center
Mon 08:44:29 PM 39.5714 -88.8969 210° Southwest 440 506 37,800 878 Climbing Kansas City Center
Mon 08:45:31 PM 39.4458 -88.9878 209° Southwest 433 498 38,000 98 Climbing Kansas City Center
Mon 08:46:32 PM 39.3364 -89.0642 208° Southwest 436 502 38,000  Level Kansas City Center
Mon 08:47:33 PM 39.2303 -89.1425 210° Southwest 438 504 38,000  Level Kansas City Center
Mon 08:48:37 PM 39.1169 -89.2258 210° Southwest 437 503 38,000 240 Level Kansas City Center
Mon 08:49:38 PM 39.0092 -89.3014 209° Southwest 440 506 38,500 639 Climbing Kansas City Center
Mon 08:50:39 PM 38.9017 -89.3769 209° Southwest 440 506 39,300 738 Climbing Kansas City Center
Mon 08:51:40 PM 38.7944 -89.4539 209° Southwest 440 506 40,000 347 Climbing Kansas City Center
Mon 08:52:40 PM 38.6778 -89.5364 209° Southwest 444 511 40,000  Level Kansas City Center
Mon 08:53:44 PM 38.5697 -89.6128 209° Southwest 443 510 40,000  Level Kansas City Center
Mon 08:54:45 PM 38.4753 -89.6781 208° Southwest 444 511 40,000  Level Kansas City Center
Mon 08:55:46 PM 38.3525 -89.7658 209° Southwest 441 507 40,000  Level Kansas City Center
Mon 08:56:49 PM 38.2358 -89.8458 208° Southwest 440 506 40,000  Level Kansas City Center
Mon 08:57:50 PM 38.1281 -89.9211 209° Southwest 443 510 40,000  Level Kansas City Center
Mon 08:58:50 PM 38.0189 -89.9958 208° Southwest 445 512 40,000  Level Kansas City Center
Mon 08:59:51 PM 37.9092 -90.0706 208° Southwest 448 516 40,000  Level Kansas City Center
Mon 09:00:52 PM 37.7992 -90.1475 209° Southwest 451 519 40,000  Level Kansas City Center
Mon 09:01:53 PM 37.6886 -90.2253 209° Southwest 454 522 40,000  Level Kansas City Center
Mon 09:02:57 PM 37.5794 -90.3011 209° Southwest 450 518 40,000  Level Kansas City Center
Mon 09:03:58 PM 37.4681 -90.3742 208° Southwest 451 519 40,000  Level Kansas City Center
Mon 09:04:59 PM 37.3581 -90.4481 208° Southwest 449 517 40,000  Level Kansas City Center
Mon 09:05:22 PM 37.2964 -90.4897 208° Southwest 451 519 40,000  Level Memphis Center
Mon 09:06:22 PM 37.1964 -90.5600 209° Southwest 451 519 40,000  Level Memphis Center
Mon 09:07:22 PM 37.0858 -90.6325 208° Southwest 451 519 40,000  Level Memphis Center
Mon 09:08:22 PM 36.9753 -90.7075 208° Southwest 456 525 40,000  Level Memphis Center
Mon 09:09:22 PM 36.8644 -90.7797 208° Southwest 456 525 40,000  Level Memphis Center
Mon 09:10:22 PM 36.7558 -90.8489 207° Southwest 456 525 40,000  Level Memphis Center
Mon 09:11:22 PM 36.6514 -90.9181 208° Southwest 450 518 40,000  Level Memphis Center
Mon 09:12:22 PM 36.5469 -90.9872 208° Southwest 445 512 40,000  Level Memphis Center
Mon 09:13:22 PM 36.4403 -91.0586 208° Southwest 440 506 40,000  Level Memphis Center
Mon 09:14:22 PM 36.3314 -91.1297 208° Southwest 440 506 40,000  Level Memphis Center
Mon 09:15:22 PM 36.2225 -91.1983 207° Southwest 440 506 40,000  Level Memphis Center
Mon 09:16:22 PM 36.1158 -91.2664 207° Southwest 440 506 40,000  Level Memphis Center
Mon 09:17:22 PM 36.0108 -91.3397 209° Southwest 440 506 40,000  Level Memphis Center
Mon 09:18:22 PM 35.9000 -91.4078 206° Southwest 440 506 40,000  Level Memphis Center
Mon 09:19:22 PM 35.7886 -91.4806 208° Southwest 430 495 40,000  Level Memphis Center
Mon 09:20:22 PM 35.6817 -91.5506 208° Southwest 430 495 40,000  Level Memphis Center
Mon 09:21:22 PM 35.5725 -91.6181 207° Southwest 442 509 40,000  Level Memphis Center
Mon 09:22:22 PM 35.4675 -91.6853 208° Southwest 437 503 40,000  Level Memphis Center
Mon 09:23:22 PM 35.3606 -91.7522 207° Southwest 437 503 40,000  Level Memphis Center
Mon 09:24:22 PM 35.2492 -91.8217 207° Southwest 442 509 40,000  Level Memphis Center
Mon 09:25:22 PM 35.1397 -91.8908 207° Southwest 442 509 40,000  Level Memphis Center
Mon 09:26:22 PM 35.0325 -91.9572 207° Southwest 442 509 40,000  Level Memphis Center
Mon 09:27:22 PM 34.9253 -92.0236 207° Southwest 442 509 40,000  Level Memphis Center
Mon 09:28:22 PM 34.8200 -92.0925 208° Southwest 442 509 40,000  Level Memphis Center
Mon 09:29:22 PM 34.7128 -92.1561 206° Southwest 437 503 40,000  Level Memphis Center
Mon 09:30:22 PM 34.5953 -92.1939 195° South 437 503 40,000  Level Memphis Center
Mon 09:31:22 PM 34.4719 -92.2189 189° South 443 510 40,000  Level Memphis Center
Mon 09:32:22 PM 34.3631 -92.2392 189° South 443 510 40,000  Level Memphis Center
Mon 09:34:43 PM 34.0772 -92.2933 189° South 453 521 40,000  Level Fort Worth Center
Mon 09:35:43 PM 33.9550 -92.3156 189° South 453 521 40,000  Level Fort Worth Center
Mon 09:36:43 PM 33.8350 -92.3400 190° South 453 521 40,000  Level Fort Worth Center
Mon 09:37:43 PM 33.7108 -92.3622 188° South 446 513 40,000  Level Fort Worth Center
Mon 09:38:43 PM 33.5781 -92.3850 188° South 441 507 40,000  Level Fort Worth Center
Mon 09:39:43 PM 33.4581 -92.4092 190° South 446 513 40,000  Level Fort Worth Center
Mon 09:40:43 PM 33.3378 -92.4283 188° South 446 513 40,000  Level Fort Worth Center
Mon 09:41:43 PM 33.2156 -92.4528 189° South 446 513 40,000  Level Fort Worth Center
Mon 09:42:43 PM 33.0911 -92.4744 188° South 446 513 40,000  Level Fort Worth Center
Mon 09:43:43 PM 32.9669 -92.4961 188° South 446 513 40,000  Level Fort Worth Center
Mon 09:45:43 PM 32.7200 -92.5444 189° South 449 517 40,000 -33 Level Houston Center
Mon 09:46:44 PM 32.6056 -92.5631 188° South 453 521 39,900  Descending Houston Center
Mon 09:47:45 PM 32.4800 -92.5922 191° South 459 528 40,000 49 Climbing Houston Center
Mon 09:48:46 PM 32.3550 -92.6131 188° South 455 524 40,000  Level Houston Center
Mon 09:49:47 PM 32.2272 -92.6342 188° South 461 531 40,000  Level Houston Center
Mon 09:50:49 PM 32.1014 -92.6575 189° South 459 528 40,000  Level Houston Center
Mon 09:51:50 PM 31.9536 -92.6947 192° South 453 521 40,000  Level Houston Center
Mon 09:52:51 PM 31.8628 -92.7875 221° Southwest 431 496 40,000  Level Houston Center
Mon 09:53:52 PM 31.7706 -92.8739 219° Southwest 427 491 40,000 -49 Level Houston Center
Mon 09:54:54 PM 31.6789 -92.9622 219° Southwest 427 491 39,900 -49 Descending Houston Center
Mon 09:55:55 PM 31.5875 -93.0517 220° Southwest 429 494 39,900  Level Houston Center
Mon 09:56:56 PM 31.4947 -93.1392 219° Southwest 429 494 39,900 49 Level Houston Center
Mon 09:57:57 PM 31.4028 -93.2275 219° Southwest 430 495 40,000 49 Climbing Houston Center
Mon 09:58:58 PM 31.3067 -93.3197 219° Southwest 430 495 40,000 -49 Level Houston Center
Mon 10:00:00 PM 31.2186 -93.4011 218° Southwest 426 490 39,900 -293 Descending Houston Center
Mon 10:01:00 PM 31.1313 -93.4807 218° Southwest  Level FlightAware Approximate
Mon 10:02:02 PM 31.0192 -93.5928 218° Southwest 421 484 39,100  Level Houston Center
Mon 10:03:03 PM 30.9286 -93.6775 219° Southwest 419 482 36,300 -3,049 Descending Houston Center
Mon 10:04:04 PM 30.8386 -93.7642 220° Southwest 422 486 32,900 -3,610 Descending Houston Center
Mon 10:05:06 PM 30.7436 -93.8519 218° Southwest 436 502 28,900 -3,610 Descending Houston Center
Mon 10:06:07 PM 30.6494 -93.9425 220° Southwest 443 510 25,500 -3,246 Descending Houston Center
Mon 10:07:08 PM 30.5514 -94.0333 219° Southwest 452 520 22,300 -3,346 Descending Houston Center
Mon 10:07:51 PM 30.4694 -94.1106 219° Southwest 442 509 19,700 -3,049 Descending Houston Center
Mon 10:08:09 PM 30.4581 -94.1217 220° Southwest 439 505 19,200 -3,836 Descending Houston Center
Mon 10:08:52 PM 30.3936 -94.2153 231° Southwest 410 472 15,800 -4,525 Descending Houston Center
Mon 10:09:10 PM 30.3803 -94.2486 245° Southwest 409 471 14,600 -3,055 Descending Houston Center
Mon 10:09:47 PM 30.3494 -94.3203 244° Southwest 403 464 13,000 -2,459 Descending Houston Center
Mon 10:10:11 PM 30.3314 -94.3642 245° Southwest 404 465 12,100 -1,279 Descending Houston Center
Mon 10:10:48 PM 30.3022 -94.4381 245° Southwest 386 444 11,700 -590 Descending Houston Center
Mon 10:11:12 PM 30.2858 -94.4750 243° Southwest 390 449 11,500 -655 Descending Houston Center
Mon 10:11:43 PM 30.2592 -94.5356 243° Southwest 383 441 11,100 -590 Descending Houston Center
Mon 10:12:13 PM 30.2419 -94.5811 246° West 384 442 10,900 -716 Descending Houston Center
Mon 10:12:50 PM 30.2081 -94.6583 243° Southwest 380 437 10,300 -677 Descending Houston Center
Mon 10:13:15 PM 30.1956 -94.6900 245° Southwest 380 437 10,200 -300 Descending Houston Center
Mon 10:13:50 PM 30.1617 -94.7658 243° Southwest 368 423 10,000 -98 Descending Houston Center
Mon 10:14:16 PM 30.1511 -94.7956 248° West 371 427 10,100  Climbing Houston Center
Mon 10:14:57 PM 30.1125 -94.8881 244° Southwest 367 422 10,000  Descending Houston Center
Mon 10:15:17 PM 30.1097 -94.9028 258° West 368 423 10,100  Climbing Houston Center
Mon 10:15:46 PM 30.1064 -94.9783 267° West 372 428 10,000  Descending Houston Center
Mon 10:16:18 PM 30.1069 -95.0428 271° West 365 420 10,100 -97 Climbing Houston Center
Mon 10:16:48 PM 30.1061 -95.0869 269° West 322 371 9,900 -492 Descending Houston Center
Mon 10:17:19 PM 30.1069 -95.1389 271° West 322 371 9,600 -1,273 Descending Houston Center
Mon 10:17:54 PM 30.1053 -95.1908 268° West 269 310 8,500 -1,574 Descending Houston Center
Mon 10:18:20 PM 30.1075 -95.2244 274° West 280 322 8,000 -1,548 Descending Houston Center
Mon 10:18:56 PM 30.1069 -95.2778 269° West 275 316 6,900 -1,452 Descending Houston Center
Mon 10:19:22 PM 30.1075 -95.3117 271° West 274 315 6,500 -689 Descending Houston Center
Mon 10:19:57 PM 30.1061 -95.3622 268° West 267 307 6,200 -393 Descending Houston Center
Mon 10:20:23 PM 30.1067 -95.3919 271° West 262 302 6,100 -885 Descending Houston Center
Mon 10:20:58 PM 30.1072 -95.4419 271° West 222 255 5,300 -984 Descending Houston Center
Mon 10:21:24 PM 30.1075 -95.4639 271° West 231 266 5,100 -984 Descending Houston Center
Mon 10:21:59 PM 30.1075 -95.5142 270° West 226 260 4,300 -984 Descending Houston Center
Mon 10:22:25 PM 30.1078 -95.5356 271° West 225 259 4,100 -1,082 Descending Houston Center
Mon 10:23:00 PM 30.0878 -95.5769 241° Southwest 216 249 3,200 -984 Descending Houston Center
Mon 10:23:26 PM 30.0717 -95.5817 194° South 230 265 3,100 -197 Descending Houston Center
Mon 10:24:01 PM 30.0317 -95.5811 179° South 211 243 3,000  Descending Houston Center
Mon 10:24:27 PM 30.0144 -95.5750 163° South 220 253 3,100  Climbing Houston Center
Mon 10:25:02 PM 29.9894 -95.5331 125° Southeast 208 239 3,000 -295 Descending Houston Center
Mon 10:25:28 PM 29.9922 -95.5075 83° East 209 241 2,800 -885 Descending Houston Center
Mon 10:26:03 PM 29.9925 -95.4750 89° East 180 207 2,100 -1,200 Descending Houston Center

Login

Don't have an account? Register now (free) for customized features, flight alerts, and more!